createdAt,value
2022-08-26T00:02:09.162Z,100423.19
2022-08-26T00:04:38.063Z,100408.00
2022-08-26T00:07:07.191Z,100421.56
2022-08-26T00:09:40.090Z,100383.38
2022-08-26T00:12:12.307Z,100353.25
2022-08-26T00:14:42.073Z,100349.06
2022-08-26T00:17:12.251Z,100414.34
2022-08-26T00:19:41.443Z,100412.09
2022-08-26T00:22:10.413Z,100418.44
2022-08-26T00:24:40.479Z,100418.19
2022-08-26T00:27:16.829Z,100393.84
2022-08-26T00:29:46.172Z,100414.16
2022-08-26T00:32:16.213Z,100412.31
2022-08-26T00:34:45.554Z,100406.75
2022-08-26T00:37:16.263Z,100411.97
2022-08-26T00:39:45.660Z,100396.47
2022-08-26T00:42:14.594Z,100414.31
2022-08-26T00:44:45.207Z,100409.03
2022-08-26T00:47:23.354Z,100371.09
2022-08-26T00:49:52.821Z,100389.19
2022-08-26T00:52:24.060Z,100406.88
2022-08-26T00:54:59.710Z,100404.06
2022-08-26T00:57:28.940Z,100416.19
2022-08-26T01:00:01.455Z,100403.47
2022-08-26T01:02:31.639Z,100391.03
2022-08-26T01:05:03.337Z,100403.28
2022-08-26T01:07:34.722Z,100360.91
2022-08-26T01:10:09.300Z,100398.84
2022-08-26T01:12:43.762Z,100381.63
2022-08-26T01:15:16.656Z,100402.50
2022-08-26T01:17:47.426Z,100409.31
2022-08-26T01:20:27.778Z,100402.38
2022-08-26T01:23:01.486Z,100405.66
2022-08-26T01:25:34.584Z,100399.41
2022-08-26T01:28:07.149Z,100403.22
2022-08-26T01:30:38.667Z,100405.09
2022-08-26T01:33:19.983Z,100399.28
2022-08-26T01:35:49.296Z,100396.78
2022-08-26T01:38:19.894Z,100321.09
2022-08-26T01:40:49.427Z,100395.06
2022-08-26T01:43:24.058Z,100394.94
2022-08-26T01:45:57.300Z,100404.97
2022-08-26T01:48:29.879Z,100389.31
2022-08-26T01:50:59.790Z,100389.81
2022-08-26T01:53:30.790Z,100389.44
2022-08-26T01:56:03.064Z,100336.75
2022-08-26T01:58:37.465Z,100381.56
2022-08-26T02:01:07.114Z,100371.41
2022-08-26T02:03:47.664Z,100379.44
2022-08-26T02:06:16.574Z,100386.78
2022-08-26T02:08:49.700Z,100315.78
2022-08-26T02:11:19.625Z,100360.91
2022-08-26T02:13:52.461Z,100385.41
2022-08-26T02:16:27.867Z,100384.84
2022-08-26T02:18:57.906Z,100386.63
2022-08-26T02:21:27.165Z,100384.97
2022-08-26T02:23:57.815Z,100383.03
2022-08-26T02:26:27.122Z,100389.53
2022-08-26T02:29:03.046Z,100384.25
2022-08-26T02:31:31.896Z,100396.41
2022-08-26T02:34:08.990Z,100392.22
2022-08-26T02:36:39.825Z,100397.44
2022-08-26T02:39:10.592Z,100384.25
2022-08-26T02:41:44.887Z,100381.00
2022-08-26T02:44:13.992Z,100386.41
2022-08-26T02:46:47.051Z,100376.81
2022-08-26T02:49:17.124Z,100385.91
2022-08-26T02:51:46.786Z,100397.78
2022-08-26T02:54:16.865Z,100396.13
2022-08-26T02:56:46.574Z,100394.59
2022-08-26T02:59:15.538Z,100405.78
2022-08-26T03:01:45.450Z,100407.16
2022-08-26T03:04:15.234Z,100407.28
2022-08-26T03:06:44.358Z,100401.16
2022-08-26T03:09:23.377Z,100409.31
2022-08-26T03:11:52.432Z,100400.19
2022-08-26T03:14:21.366Z,100400.91
2022-08-26T03:16:54.508Z,100413.91
2022-08-26T03:19:24.619Z,100406.31
2022-08-26T03:21:57.800Z,100413.06
2022-08-26T03:24:28.970Z,100418.13
2022-08-26T03:26:57.926Z,100409.81
2022-08-26T03:29:43.975Z,100411.97
2022-08-26T03:32:18.975Z,100417.25
2022-08-26T03:34:48.073Z,100386.38
2022-08-26T03:37:16.804Z,100417.41
2022-08-26T03:39:47.399Z,100415.69
2022-08-26T03:42:16.774Z,100374.22
2022-08-26T03:44:45.851Z,100419.97
2022-08-26T03:47:14.678Z,100423.34
2022-08-26T03:49:43.440Z,100432.09
2022-08-26T03:52:14.025Z,100350.41
2022-08-26T03:54:43.548Z,100425.13
2022-08-26T03:57:13.573Z,100431.03
2022-08-26T03:59:45.508Z,100419.16
2022-08-26T04:02:14.158Z,100415.06
2022-08-26T04:04:44.444Z,100417.34
2022-08-26T04:07:13.683Z,100400.50
2022-08-26T04:09:43.879Z,100405.41
2022-08-26T04:12:13.937Z,100408.03
2022-08-26T04:14:43.755Z,100394.88
2022-08-26T04:17:13.456Z,100405.31
2022-08-26T04:19:42.237Z,100410.97
2022-08-26T04:22:11.124Z,100407.94
2022-08-26T04:24:40.322Z,100405.19
2022-08-26T04:27:10.469Z,100408.47
2022-08-26T04:29:41.651Z,100400.53
2022-08-26T04:32:10.649Z,100399.38
2022-08-26T04:34:39.823Z,100402.78
2022-08-26T04:37:09.284Z,100357.16
2022-08-26T04:39:38.235Z,100398.19
2022-08-26T04:42:07.665Z,100389.25
2022-08-26T04:44:38.722Z,100354.56
2022-08-26T04:47:09.801Z,100399.97
2022-08-26T04:49:40.394Z,100402.69
2022-08-26T04:52:10.306Z,100383.63
2022-08-26T04:54:39.436Z,100402.47
2022-08-26T04:57:11.204Z,100388.34
2022-08-26T04:59:40.370Z,100395.63
2022-08-26T05:02:10.698Z,100394.50
2022-08-26T05:04:40.349Z,100401.25
2022-08-26T05:07:09.725Z,100387.78
2022-08-26T05:09:40.049Z,100388.13
2022-08-26T05:12:09.708Z,100396.94
2022-08-26T05:14:38.842Z,100399.53
2022-08-26T05:17:08.509Z,100397.84
2022-08-26T05:19:38.661Z,100380.28
2022-08-26T05:22:13.271Z,100387.44
2022-08-26T05:24:43.413Z,100401.75
2022-08-26T05:27:12.601Z,100397.84
2022-08-26T05:29:42.150Z,100406.28
2022-08-26T05:32:11.244Z,100395.03
2022-08-26T05:34:43.053Z,100401.16
2022-08-26T05:37:13.686Z,100403.41
2022-08-26T05:39:43.551Z,100387.03
2022-08-26T05:42:20.127Z,100401.56
2022-08-26T05:44:55.446Z,100399.31
2022-08-26T05:47:25.264Z,100395.13
2022-08-26T05:49:56.238Z,100394.03
2022-08-26T05:52:26.144Z,100409.06
2022-08-26T05:54:55.177Z,100415.81
2022-08-26T05:57:23.997Z,100406.75
2022-08-26T05:59:53.096Z,100414.50
2022-08-26T06:02:22.077Z,100410.75
2022-08-26T06:04:51.256Z,100393.56
2022-08-26T06:07:42.175Z,100418.56
2022-08-26T06:10:32.556Z,100375.56
2022-08-26T06:13:11.633Z,100418.09
2022-08-26T06:15:43.211Z,100398.25
2022-08-26T06:18:14.667Z,100406.03
2022-08-26T06:20:56.959Z,100403.00
2022-08-26T06:23:47.194Z,100405.41
2022-08-26T06:26:17.466Z,100412.63
2022-08-26T06:28:46.784Z,100399.13
2022-08-26T06:31:16.508Z,100411.19
2022-08-26T06:33:45.765Z,100409.41
2022-08-26T06:36:20.521Z,100387.22
2022-08-26T06:38:51.722Z,100412.34
2022-08-26T06:41:22.966Z,100405.63
2022-08-26T06:43:52.426Z,100406.69
2022-08-26T06:46:23.443Z,100398.84
2022-08-26T06:48:55.699Z,100401.38
2022-08-26T06:51:26.728Z,100395.09
2022-08-26T06:53:59.610Z,100390.69
2022-08-26T06:56:33.491Z,100386.97
2022-08-26T06:59:02.750Z,100371.25
2022-08-26T07:01:33.764Z,100380.25
2022-08-26T07:04:10.533Z,100383.16
2022-08-26T07:06:41.590Z,100387.59
2022-08-26T07:09:13.655Z,100386.31
2022-08-26T07:11:44.623Z,100387.97
2022-08-26T07:14:14.552Z,100392.72
2022-08-26T07:16:44.324Z,100388.78
2022-08-26T07:19:13.655Z,100381.44
2022-08-26T07:21:42.671Z,100384.44
2022-08-26T07:24:13.048Z,100392.03
2022-08-26T07:26:43.091Z,100398.75
2022-08-26T07:29:12.712Z,100372.22
2022-08-26T07:31:42.995Z,100385.84
2022-08-26T07:34:13.944Z,100385.78
2022-08-26T07:36:42.736Z,100382.78
2022-08-26T07:39:11.491Z,100370.84
2022-08-26T07:41:41.762Z,100374.81
2022-08-26T07:44:11.629Z,100366.09
2022-08-26T07:46:41.082Z,100357.44
2022-08-26T07:49:13.157Z,100363.47
2022-08-26T07:51:42.111Z,100351.59
2022-08-26T07:54:10.857Z,100362.72
2022-08-26T07:56:44.239Z,100314.22
2022-08-26T07:59:13.856Z,100355.19
2022-08-26T08:01:45.435Z,100361.56
2022-08-26T08:04:15.415Z,100358.19
2022-08-26T08:06:45.268Z,100361.38
2022-08-26T08:09:16.110Z,100350.88
2022-08-26T08:11:46.765Z,100357.84
2022-08-26T08:14:18.284Z,100350.88
2022-08-26T08:16:54.729Z,100311.56
2022-08-26T08:19:25.065Z,100320.72
2022-08-26T08:22:17.545Z,100307.66
2022-08-26T08:24:50.020Z,100326.66
2022-08-26T08:27:24.248Z,100321.53
2022-08-26T08:29:55.247Z,100333.91
2022-08-26T08:32:25.118Z,100330.47
2022-08-26T08:34:54.465Z,100323.19
2022-08-26T08:37:23.397Z,100307.44
2022-08-26T08:39:52.599Z,100317.44
2022-08-26T08:42:45.727Z,100319.56
2022-08-26T08:45:21.291Z,100315.38
2022-08-26T08:47:54.080Z,100317.34
2022-08-26T08:50:28.504Z,100317.69
2022-08-26T08:53:11.083Z,100307.06
2022-08-26T08:56:03.366Z,100304.59
2022-08-26T08:58:51.625Z,100308.59
2022-08-26T09:01:29.459Z,100306.91
2022-08-26T09:04:13.869Z,100231.78
2022-08-26T09:06:48.453Z,100306.47
2022-08-26T09:09:24.099Z,100306.16
2022-08-26T09:11:54.470Z,100297.16
2022-08-26T09:14:25.501Z,100301.94
2022-08-26T09:17:06.226Z,100292.50
2022-08-26T09:19:43.936Z,100293.88
2022-08-26T09:22:30.018Z,100284.41
2022-08-26T09:24:59.254Z,100282.91
2022-08-26T09:27:40.176Z,100286.44
2022-08-26T09:30:13.514Z,100286.63
2022-08-26T09:32:44.561Z,100287.09
2022-08-26T09:35:27.663Z,100276.09
2022-08-26T09:37:57.779Z,100280.75
2022-08-26T09:40:31.096Z,100273.16
2022-08-26T09:43:14.261Z,100276.22
2022-08-26T09:45:50.836Z,100263.00
2022-08-26T09:48:31.283Z,100271.63
2022-08-26T09:51:02.613Z,100272.00
2022-08-26T09:53:34.465Z,100272.88
2022-08-26T09:56:18.228Z,100276.84
2022-08-26T09:58:49.267Z,100265.63
2022-08-26T10:01:29.583Z,100250.03
2022-08-26T10:04:11.287Z,100274.09
2022-08-26T10:06:43.394Z,100266.69
2022-08-26T10:09:16.941Z,100272.38
2022-08-26T10:11:51.782Z,100276.41
2022-08-26T10:14:26.451Z,100268.25
2022-08-26T10:17:03.303Z,100274.44
2022-08-26T10:19:41.333Z,100265.22
2022-08-26T10:22:30.544Z,100278.06
2022-08-26T10:25:04.631Z,100271.22
2022-08-26T10:27:49.547Z,100265.50
2022-08-26T10:30:24.439Z,100266.09
2022-08-26T10:32:58.887Z,100221.28
2022-08-26T10:35:28.859Z,100278.78
2022-08-26T10:38:04.007Z,100287.19
2022-08-26T10:40:42.246Z,100271.72
2022-08-26T10:43:17.024Z,100278.09
2022-08-26T10:45:52.327Z,100274.88
2022-08-26T10:48:35.428Z,100224.00
2022-08-26T10:51:06.120Z,100268.72
2022-08-26T10:53:46.756Z,100268.56
2022-08-26T10:56:30.934Z,100271.28
2022-08-26T10:59:12.426Z,100273.78
2022-08-26T11:01:50.971Z,100261.06
2022-08-26T11:04:44.496Z,100266.47
2022-08-26T11:07:43.663Z,100258.53
2022-08-26T11:10:54.613Z,100250.66
2022-08-26T11:14:09.501Z,100264.84
2022-08-26T11:16:42.861Z,100257.38
2022-08-26T11:19:58.991Z,100268.59
2022-08-26T11:22:30.236Z,100256.09
2022-08-26T11:25:11.261Z,100255.75
2022-08-26T11:27:57.084Z,100262.16
2022-08-26T11:30:57.890Z,100256.88
2022-08-26T11:33:58.297Z,100265.72
2022-08-26T11:36:39.291Z,100264.56
2022-08-26T11:39:20.219Z,100224.16
2022-08-26T11:41:52.763Z,100267.59
2022-08-26T11:44:24.029Z,100268.50
2022-08-26T11:46:56.607Z,100260.72
2022-08-26T11:49:26.001Z,100265.69
2022-08-26T11:52:09.663Z,100253.31
2022-08-26T11:54:39.957Z,100243.81
2022-08-26T11:57:13.527Z,100259.38
2022-08-26T11:59:43.558Z,100254.84
2022-08-26T12:02:17.744Z,100245.50
2022-08-26T12:04:50.822Z,100255.16
2022-08-26T12:07:25.003Z,100253.97
2022-08-26T12:09:58.102Z,100242.53
2022-08-26T12:12:35.020Z,100239.00
2022-08-26T12:15:11.279Z,100234.91
2022-08-26T12:17:40.810Z,100231.78
2022-08-26T12:20:21.302Z,100239.56
2022-08-26T12:22:51.176Z,100225.25
2022-08-26T12:25:25.353Z,100230.16
2022-08-26T12:27:54.343Z,100239.06
2022-08-26T12:30:26.171Z,100248.06
2022-08-26T12:33:22.529Z,100241.31
2022-08-26T12:35:56.561Z,100242.47
2022-08-26T12:38:27.272Z,100247.41
2022-08-26T12:40:58.197Z,100239.59
2022-08-26T12:43:44.706Z,100224.50
2022-08-26T12:46:17.097Z,100241.78
2022-08-26T12:48:50.213Z,100237.88
2022-08-26T12:51:25.951Z,100230.16
2022-08-26T12:53:55.508Z,100228.19
2022-08-26T12:56:35.322Z,100237.72
2022-08-26T12:59:10.244Z,100236.97
2022-08-26T13:01:44.230Z,100234.44
2022-08-26T13:04:34.386Z,100244.97
2022-08-26T13:07:21.337Z,100232.91
2022-08-26T13:09:51.767Z,100243.91
2022-08-26T13:12:34.970Z,100248.31
2022-08-26T13:15:05.505Z,100239.97
2022-08-26T13:17:35.970Z,100235.13
2022-08-26T13:20:05.264Z,100240.22
2022-08-26T13:22:34.733Z,100241.41
2022-08-26T13:25:03.449Z,100235.41
2022-08-26T13:27:33.619Z,100234.19
2022-08-26T13:30:02.366Z,100231.97
2022-08-26T13:32:32.872Z,100227.38
2022-08-26T13:35:05.934Z,100227.63
2022-08-26T13:37:35.626Z,100251.13
2022-08-26T13:40:07.044Z,100249.50
2022-08-26T13:42:37.327Z,100251.91
2022-08-26T13:45:19.230Z,100249.38
2022-08-26T13:47:48.539Z,100256.34
2022-08-26T13:50:17.582Z,100249.66
2022-08-26T13:52:46.362Z,100251.25
2022-08-26T13:55:15.312Z,100238.91
2022-08-26T13:57:45.519Z,100241.78
2022-08-26T14:00:15.758Z,100219.56
2022-08-26T14:02:44.575Z,100222.38
2022-08-26T14:05:13.748Z,100241.59
2022-08-26T14:07:42.738Z,100230.56
2022-08-26T14:10:12.782Z,100243.09
2022-08-26T14:12:41.578Z,100227.72
2022-08-26T14:15:16.311Z,100244.66
2022-08-26T14:17:45.896Z,100232.88
2022-08-26T14:20:21.291Z,100221.66
2022-08-26T14:23:20.673Z,100231.97
2022-08-26T14:25:39.235Z,100225.66
2022-08-26T14:28:07.991Z,100239.19
2022-08-26T14:30:41.066Z,100239.81
2022-08-26T14:33:13.410Z,100231.94
2022-08-26T14:35:48.050Z,100236.78
2022-08-26T14:38:18.253Z,100232.16
2022-08-26T14:40:47.051Z,100172.16
2022-08-26T14:43:16.475Z,100219.84
2022-08-26T14:45:46.772Z,100228.03
2022-08-26T14:48:15.613Z,100229.59
2022-08-26T14:50:44.623Z,100227.72
2022-08-26T14:53:31.201Z,100229.19
2022-08-26T14:56:00.059Z,100234.25
2022-08-26T14:58:34.721Z,100235.59
2022-08-26T15:01:06.988Z,100221.53
2022-08-26T15:03:35.783Z,100214.94
2022-08-26T15:06:05.564Z,100234.81
2022-08-26T15:08:36.703Z,100224.81
2022-08-26T15:11:05.990Z,100225.81
2022-08-26T15:13:35.055Z,100211.66
2022-08-26T15:16:05.587Z,100216.03
2022-08-26T15:18:34.355Z,100230.94
2022-08-26T15:21:03.841Z,100237.13
2022-08-26T15:23:32.662Z,100231.34
2022-08-26T15:26:01.666Z,100231.66
2022-08-26T15:28:31.306Z,100222.47
2022-08-26T15:31:00.507Z,100236.03
2022-08-26T15:33:30.767Z,100245.13
2022-08-26T15:36:01.193Z,100244.19
2022-08-26T15:38:31.737Z,100242.41
2022-08-26T15:41:03.365Z,100241.44
2022-08-26T15:43:32.954Z,100233.31
2022-08-26T15:46:01.871Z,100249.13
2022-08-26T15:48:32.194Z,100239.56
2022-08-26T15:51:02.427Z,100179.31
2022-08-26T15:53:33.485Z,100237.56
2022-08-26T15:56:03.029Z,100239.09
2022-08-26T15:58:32.217Z,100230.50
2022-08-26T16:01:01.353Z,100235.66
2022-08-26T16:03:31.752Z,100233.00
2022-08-26T16:06:00.656Z,100236.94
2022-08-26T16:08:30.106Z,100239.72
2022-08-26T16:11:06.060Z,100226.00
2022-08-26T16:13:39.605Z,100229.09
2022-08-26T16:16:09.624Z,100215.66
2022-08-26T16:18:39.893Z,100225.78
2022-08-26T16:21:13.175Z,100219.34
2022-08-26T16:23:45.060Z,100189.09
2022-08-26T16:26:18.023Z,100229.25
2022-08-26T16:28:47.763Z,100219.84
2022-08-26T16:31:17.370Z,100218.63
2022-08-26T16:33:47.566Z,100219.38
2022-08-26T16:36:16.826Z,100209.41
2022-08-26T16:38:50.084Z,100216.75
2022-08-26T16:41:19.359Z,100208.34
2022-08-26T16:43:49.123Z,100213.94
2022-08-26T16:46:18.976Z,100224.56
2022-08-26T16:48:49.594Z,100214.44
2022-08-26T16:51:21.169Z,100201.44
2022-08-26T16:53:51.486Z,100215.03
2022-08-26T16:56:30.629Z,100216.94
2022-08-26T16:59:04.353Z,100214.81
2022-08-26T17:01:34.052Z,100194.66
2022-08-26T17:04:05.235Z,100219.00
2022-08-26T17:06:34.220Z,100212.25
2022-08-26T17:09:03.053Z,100210.44
2022-08-26T17:11:32.040Z,100218.47
2022-08-26T17:14:00.898Z,100222.53
2022-08-26T17:16:29.947Z,100218.38
2022-08-26T17:18:59.949Z,100220.94
2022-08-26T17:21:30.466Z,100210.22
2022-08-26T17:23:59.478Z,100214.00
2022-08-26T17:26:29.199Z,100216.50
2022-08-26T17:28:58.279Z,100196.94
2022-08-26T17:31:27.469Z,100223.03
2022-08-26T17:33:56.944Z,100209.00
2022-08-26T17:36:27.450Z,100222.59
2022-08-26T17:38:59.490Z,100219.22
2022-08-26T17:41:29.173Z,100220.03
2022-08-26T17:43:58.350Z,100219.28
2022-08-26T17:46:27.517Z,100222.69
2022-08-26T17:48:56.563Z,100195.44
2022-08-26T17:51:25.599Z,100209.50
2022-08-26T17:53:54.722Z,100197.88
2022-08-26T17:56:27.283Z,100149.38
2022-08-26T17:59:04.025Z,100200.38
2022-08-26T18:01:33.357Z,100197.63
2022-08-26T18:04:03.032Z,100206.53
2022-08-26T18:06:33.363Z,100210.63
2022-08-26T18:09:02.822Z,100193.91
2022-08-26T18:11:33.657Z,100186.81
2022-08-26T18:14:03.043Z,100179.22
2022-08-26T18:16:38.339Z,100202.69
2022-08-26T18:19:07.653Z,100183.25
2022-08-26T18:21:37.399Z,100204.72
2022-08-26T18:24:08.304Z,100209.88
2022-08-26T18:26:48.430Z,100191.22
2022-08-26T18:29:21.684Z,100164.78
2022-08-26T18:31:50.976Z,100202.38
2022-08-26T18:34:19.991Z,100206.53
2022-08-26T18:36:51.810Z,100196.28
2022-08-26T18:39:22.200Z,100199.94
2022-08-26T18:41:54.325Z,100201.81
2022-08-26T18:44:24.002Z,100188.50
2022-08-26T18:46:53.714Z,100201.16
2022-08-26T18:49:26.144Z,100191.63
2022-08-26T18:51:55.226Z,100207.38
2022-08-26T18:54:26.113Z,100070.84
2022-08-26T18:56:56.660Z,100209.75
2022-08-26T18:59:29.564Z,100205.00
2022-08-26T19:02:00.023Z,100201.94
2022-08-26T19:04:29.540Z,100207.72
2022-08-26T19:06:58.592Z,100210.28
2022-08-26T19:09:28.207Z,100192.25
2022-08-26T19:11:59.452Z,100206.28
2022-08-26T19:14:28.600Z,100208.63
2022-08-26T19:16:57.824Z,100120.56
2022-08-26T19:19:26.941Z,100205.53
2022-08-26T19:21:56.113Z,100204.25
2022-08-26T19:24:27.459Z,100205.94
2022-08-26T19:27:01.555Z,100208.47
2022-08-26T19:29:33.272Z,100202.00
2022-08-26T19:32:04.239Z,100212.22
2022-08-26T19:34:33.593Z,100212.94
2022-08-26T19:37:02.738Z,100208.94
2022-08-26T19:39:31.828Z,100199.72
2022-08-26T19:42:02.118Z,100211.88
2022-08-26T19:44:48.563Z,100209.97
2022-08-26T19:47:17.920Z,100187.63
2022-08-26T19:49:46.863Z,100210.47
2022-08-26T19:52:15.882Z,100203.16
2022-08-26T19:54:44.902Z,100222.41
2022-08-26T19:57:15.200Z,100220.13
2022-08-26T19:59:44.479Z,100219.50
2022-08-26T20:02:14.858Z,100156.88
2022-08-26T20:04:44.773Z,100220.34
2022-08-26T20:07:18.511Z,100222.41
2022-08-26T20:09:48.781Z,100217.59
2022-08-26T20:12:19.787Z,100220.31
2022-08-26T20:14:48.821Z,100226.59
2022-08-26T20:17:17.997Z,100210.28
2022-08-26T20:20:04.111Z,100148.31
2022-08-26T20:22:40.371Z,100232.72
2022-08-26T20:25:10.210Z,100224.97
2022-08-26T20:27:41.301Z,100226.63
2022-08-26T20:30:12.116Z,100222.00
2022-08-26T20:32:42.581Z,100229.56
2022-08-26T20:35:14.427Z,100229.38
2022-08-26T20:37:43.935Z,100177.00
2022-08-26T20:40:14.641Z,100228.91
2022-08-26T20:42:45.046Z,100190.59
2022-08-26T20:45:13.979Z,100222.84
2022-08-26T20:47:42.970Z,100215.75
2022-08-26T20:50:11.790Z,100218.69
2022-08-26T20:52:40.686Z,100148.19
2022-08-26T20:55:10.646Z,100219.72
2022-08-26T20:57:42.544Z,100214.47
2022-08-26T21:00:16.355Z,100216.97
2022-08-26T21:02:47.375Z,100204.84
2022-08-26T21:05:16.518Z,100219.94
2022-08-26T21:07:46.011Z,100218.03
2022-08-26T21:10:15.325Z,100145.72
2022-08-26T21:12:44.613Z,100211.25
2022-08-26T21:15:16.502Z,100214.44
2022-08-26T21:17:45.632Z,100203.59
2022-08-26T21:20:14.468Z,100162.56
2022-08-26T21:22:43.330Z,100216.16
2022-08-26T21:25:12.564Z,100217.00
2022-08-26T21:27:41.520Z,100216.16
2022-08-26T21:30:11.814Z,100201.06
2022-08-26T21:32:44.966Z,100217.00
2022-08-26T21:35:13.895Z,100216.56
2022-08-26T21:37:42.790Z,100204.03
2022-08-26T21:40:12.541Z,100206.94
2022-08-26T21:42:41.605Z,100201.09
2022-08-26T21:45:11.616Z,100211.56
2022-08-26T21:47:41.647Z,100196.69
2022-08-26T21:50:13.639Z,100159.22
2022-08-26T21:52:42.668Z,100197.31
2022-08-26T21:55:11.924Z,100181.41
2022-08-26T21:57:40.926Z,100214.69
2022-08-26T22:00:13.564Z,100214.91
2022-08-26T22:02:43.354Z,100210.53
2022-08-26T22:05:13.813Z,100209.47
2022-08-26T22:07:42.800Z,100193.31
2022-08-26T22:10:12.795Z,100200.25
2022-08-26T22:12:41.583Z,100202.53
2022-08-26T22:15:11.289Z,100194.41
2022-08-26T22:17:40.372Z,100201.91
2022-08-26T22:20:16.328Z,100209.44
2022-08-26T22:22:47.040Z,100198.78
2022-08-26T22:25:19.220Z,100201.84
2022-08-26T22:27:47.932Z,100199.13
2022-08-26T22:30:17.242Z,100195.97
2022-08-26T22:32:46.100Z,100191.81
2022-08-26T22:35:29.323Z,100195.97
2022-08-26T22:38:00.268Z,100165.38
2022-08-26T22:40:29.240Z,100172.03
2022-08-26T22:43:00.334Z,100193.59
2022-08-26T22:45:32.901Z,100195.06
2022-08-26T22:48:05.180Z,100198.31
2022-08-26T22:50:34.303Z,100200.44
2022-08-26T22:53:05.581Z,100190.75
2022-08-26T22:55:34.772Z,100169.00
2022-08-26T22:58:04.489Z,100189.75
2022-08-26T23:00:34.437Z,100143.75
2022-08-26T23:03:05.718Z,100168.22
2022-08-26T23:05:35.211Z,100185.19
2022-08-26T23:08:05.824Z,100174.53
2022-08-26T23:10:36.928Z,100165.97
2022-08-26T23:13:08.198Z,100172.97
2022-08-26T23:15:37.857Z,100169.75
2022-08-26T23:18:07.437Z,100165.34
2022-08-26T23:20:36.604Z,100185.66
2022-08-26T23:23:07.325Z,100179.56
2022-08-26T23:25:36.380Z,100144.69
2022-08-26T23:28:05.572Z,100180.34
2022-08-26T23:30:35.540Z,100108.63
2022-08-26T23:33:04.468Z,100171.59
2022-08-26T23:35:32.536Z,100164.53
2022-08-26T23:38:01.897Z,100154.88
2022-08-26T23:40:35.857Z,100168.28
2022-08-26T23:43:07.419Z,100172.75
2022-08-26T23:45:37.139Z,100179.69
2022-08-26T23:48:07.016Z,100177.69
2022-08-26T23:50:53.202Z,100174.38
2022-08-26T23:53:23.802Z,100180.25
2022-08-26T23:55:54.341Z,100167.25
2022-08-26T23:58:23.447Z,100168.59
